Date,TemperatureHighF,TemperatureAvgF,TemperatureLowF,DewpointHighF,DewpointAvgF,DewpointLowF,HumidityHigh,HumidityAvg,HumidityLow,PressureMaxIn,PressureMinIn,WindSpeedMaxMPH,WindSpeedAvgMPH,GustSpeedMaxMPH,PrecipitationSumIn
2013-9-1,76,73,71,73,71,70,98,95,91,29.88,29.81,4,0,11,0.22
2013-9-2,77,72,71,75,72,70,99,97,91,29.85,29.70,5,0,10,0.12
2013-9-3,81,72,65,75,70,64,99,95,80,29.80,29.68,4,0,8,1.42
2013-9-4,79,68,59,65,62,59,97,80,52,29.92,29.79,5,0,11,0.01
2013-9-5,73,65,55,65,61,54,97,85,69,30.09,29.86,5,0,9,0.00
2013-9-6,72,59,49,53,49,44,95,71,40,30.21,30.09,4,0,8,0.00
2013-9-7,75,63,51,59,54,49,94,74,46,30.09,29.87,5,1,11,0.00
2013-9-8,78,68,53,66,57,43,94,70,44,30.07,29.73,6,1,14,0.00
2013-9-9,69,59,48,55,49,43,88,72,45,30.22,30.07,7,0,9,0.00
2013-9-10,73,66,56,69,63,53,94,88,80,30.16,30.04,6,1,11,0.00
2013-9-11,90,76,69,78,72,68,97,86,67,30.08,29.97,5,1,11,0.00
2013-9-12,76,72,69,72,70,68,96,92,86,29.98,29.69,11,1,13,0.01
2013-9-13,78,71,62,71,67,58,98,89,71,29.71,29.56,5,0,9,0.10
2013-9-14,72,63,56,58,56,53,90,77,60,30.03,29.72,4,0,9,0.00
2013-9-15,71,60,51,57,53,50,94,80,57,30.15,30.03,3,0,8,0.00
2013-9-16,70,59,51,59,55,43,96,86,65,30.18,30.00,3,0,10,0.02
2013-9-17,64,52,43,45,42,37,91,69,41,30.38,30.19,8,1,11,0.00
2013-9-18,72,57,45,53,47,40,94,72,34,30.31,30.14,3,0,8,0.00
2013-9-19,79,63,52,61,55,50,96,78,44,30.14,30.03,4,0,7,0.00
2013-9-20,80,64,54,62,57,53,97,79,43,30.07,30.00,6,0,9,0.01
2013-9-21,74,66,55,67,62,54,98,88,73,30.02,29.74,10,2,14,0.00
2013-9-22,73,66,54,67,60,48,97,82,61,29.80,29.63,10,1,18,0.72
2013-9-23,66,56,46,49,45,43,87,71,49,29.98,29.79,7,1,12,0.00
2013-9-24,67,54,44,51,45,40,91,73,48,29.98,29.79,5,0,9,0.00
2013-9-25,73,57,46,54,49,45,96,76,50,29.95,29.86,6,1,10,0.00
2013-9-26,68,58,52,52,50,48,92,76,54,30.09,29.95,3,0,10,0.00
2013-9-27,68,59,50,56,52,48,93,80,59,30.23,30.08,5,0,9,0.00
2013-9-28,76,60,47,59,53,45,96,79,49,30.29,30.22,5,0,9,0.00
2013-9-29,71,58,46,56,52,45,98,81,48,30.24,30.08,5,1,10,0.00
2013-9-30,74,61,51,60,55,49,96,83,56,30.07,29.94,5,0,7,0.00